createdAt,value
2023-01-27T00:01:51.897Z,17.50
2023-01-27T00:04:20.750Z,17.50
2023-01-27T00:06:49.371Z,17.50
2023-01-27T00:09:18.291Z,17.50
2023-01-27T00:12:04.978Z,17.40
2023-01-27T00:14:33.704Z,17.40
2023-01-27T00:17:02.467Z,17.40
2023-01-27T00:19:31.260Z,17.40
2023-01-27T00:22:18.186Z,17.40
2023-01-27T00:24:47.009Z,17.30
2023-01-27T00:27:15.396Z,17.30
2023-01-27T00:29:45.315Z,17.30
2023-01-27T00:32:32.345Z,17.40
2023-01-27T00:35:01.206Z,17.30
2023-01-27T00:37:29.626Z,17.30
2023-01-27T00:39:58.539Z,17.30
2023-01-27T00:42:27.086Z,17.30
2023-01-27T00:45:14.510Z,17.30
2023-01-27T00:47:43.006Z,17.20
2023-01-27T00:50:12.212Z,17.20
2023-01-27T00:52:41.026Z,17.20
2023-01-27T00:55:13.080Z,17.20
2023-01-27T00:57:41.838Z,17.20
2023-01-27T01:00:12.409Z,17.20
2023-01-27T01:02:41.263Z,17.20
2023-01-27T01:05:10.375Z,17.20
2023-01-27T01:07:38.845Z,17.10
2023-01-27T01:10:11.687Z,17.10
2023-01-27T01:12:40.256Z,17.10
2023-01-27T01:15:09.593Z,17.10
2023-01-27T01:17:38.032Z,17.10
2023-01-27T01:20:07.987Z,17.10
2023-01-27T01:22:36.532Z,17.10
2023-01-27T01:25:05.997Z,17.10
2023-01-27T01:27:34.392Z,17.00
2023-01-27T01:30:04.275Z,17.00
2023-01-27T01:32:33.855Z,17.00
2023-01-27T01:35:02.585Z,17.00
2023-01-27T01:37:31.021Z,17.00
2023-01-27T01:39:59.815Z,17.00
2023-01-27T01:42:55.779Z,17.00
2023-01-27T01:45:39.875Z,17.00
2023-01-27T01:48:18.860Z,17.00
2023-01-27T01:50:58.902Z,17.00
2023-01-27T01:53:34.157Z,16.90
2023-01-27T01:56:09.325Z,16.90
2023-01-27T01:58:37.855Z,16.90
2023-01-27T02:01:09.727Z,16.90
2023-01-27T02:03:38.917Z,16.90
2023-01-27T02:06:07.974Z,16.90
2023-01-27T02:08:42.256Z,16.90
2023-01-27T02:11:11.275Z,16.90
2023-01-27T02:13:39.927Z,16.80
2023-01-27T02:16:11.156Z,16.80
2023-01-27T02:18:40.935Z,16.80
2023-01-27T02:21:11.895Z,16.80
2023-01-27T02:24:02.510Z,16.80
2023-01-27T02:26:35.606Z,16.80
2023-01-27T02:29:13.335Z,16.80
2023-01-27T02:31:42.421Z,16.80
2023-01-27T02:34:17.299Z,16.80
2023-01-27T02:36:58.216Z,16.70
2023-01-27T02:39:33.496Z,16.70
2023-01-27T02:42:02.411Z,16.70
2023-01-27T02:44:30.960Z,16.70
2023-01-27T02:46:59.724Z,16.70
2023-01-27T02:49:29.250Z,16.70
2023-01-27T02:51:58.019Z,16.70
2023-01-27T02:54:26.627Z,16.70
2023-01-27T02:56:56.204Z,16.70
2023-01-27T02:59:27.299Z,16.70
2023-01-27T03:01:56.080Z,16.70
2023-01-27T03:04:24.611Z,16.60
2023-01-27T03:06:53.395Z,16.60
2023-01-27T03:09:21.885Z,16.70
2023-01-27T03:12:10.384Z,16.60
2023-01-27T03:14:57.695Z,16.60
2023-01-27T03:17:44.793Z,16.60
2023-01-27T03:20:13.649Z,16.60
2023-01-27T03:22:42.868Z,16.60
2023-01-27T03:27:43.567Z,16.60
2023-01-27T03:30:35.203Z,16.60
2023-01-27T03:33:13.615Z,16.60
2023-01-27T03:36:03.456Z,16.60
2023-01-27T03:38:51.849Z,16.50
2023-01-27T03:41:38.895Z,16.50
2023-01-27T03:44:26.105Z,16.50
2023-01-27T03:46:54.544Z,16.50
2023-01-27T03:49:23.380Z,16.50
2023-01-27T03:51:51.818Z,16.50
2023-01-27T03:54:20.578Z,16.50
2023-01-27T03:59:19.555Z,16.40
2023-01-27T04:01:48.085Z,16.40
2023-01-27T04:04:35.504Z,16.40
2023-01-27T04:07:04.003Z,16.40
2023-01-27T04:09:35.989Z,16.40
2023-01-27T04:12:06.314Z,16.40
2023-01-27T04:14:39.493Z,16.40
2023-01-27T04:17:18.493Z,16.40
2023-01-27T04:19:48.091Z,16.40
2023-01-27T04:22:16.627Z,16.40
2023-01-27T04:24:45.367Z,16.40
2023-01-27T04:27:16.597Z,16.30
2023-01-27T04:29:46.338Z,16.30
2023-01-27T04:32:14.907Z,16.30
2023-01-27T04:34:44.815Z,16.40
2023-01-27T04:37:13.178Z,16.30
2023-01-27T04:39:45.883Z,16.30
2023-01-27T04:42:14.664Z,16.30
2023-01-27T04:44:43.506Z,16.30
2023-01-27T04:47:12.011Z,16.40
2023-01-27T04:52:09.509Z,16.40
2023-01-27T04:54:39.455Z,16.50
2023-01-27T04:57:07.976Z,16.60
2023-01-27T04:59:36.838Z,16.60
2023-01-27T05:02:05.383Z,16.60
2023-01-27T05:04:34.334Z,16.70
2023-01-27T05:07:02.905Z,16.80
2023-01-27T05:09:31.876Z,16.90
2023-01-27T05:12:00.985Z,17.00
2023-01-27T05:14:31.169Z,17.10
2023-01-27T05:16:59.737Z,17.10
2023-01-27T05:19:28.823Z,17.20
2023-01-27T05:21:57.325Z,17.30
2023-01-27T05:24:26.218Z,17.40
2023-01-27T05:26:54.749Z,17.40
2023-01-27T05:29:23.877Z,17.50
2023-01-27T05:31:52.405Z,17.60
2023-01-27T05:34:21.247Z,17.70
2023-01-27T05:36:49.947Z,17.80
2023-01-27T05:39:19.957Z,17.80
2023-01-27T05:41:48.601Z,17.80
2023-01-27T05:44:17.443Z,17.90
2023-01-27T05:46:45.979Z,18.00
2023-01-27T05:49:15.962Z,18.10
2023-01-27T05:51:44.432Z,18.10
2023-01-27T05:54:13.168Z,18.20
2023-01-27T05:56:41.572Z,18.20
2023-01-27T05:59:11.314Z,18.20
2023-01-27T06:01:39.993Z,18.20
2023-01-27T06:04:09.966Z,18.20
2023-01-27T06:06:38.393Z,18.20
2023-01-27T06:09:07.232Z,18.20
2023-01-27T06:11:35.585Z,18.20
2023-01-27T06:14:04.374Z,18.10
2023-01-27T06:16:35.089Z,18.10
2023-01-27T06:19:05.084Z,18.10
2023-01-27T06:21:33.515Z,17.90
2023-01-27T06:24:02.502Z,17.90
2023-01-27T06:26:31.023Z,17.90
2023-01-27T06:28:59.819Z,17.90
2023-01-27T06:31:28.634Z,17.80
2023-01-27T06:33:57.523Z,17.80
2023-01-27T06:36:26.491Z,17.80
2023-01-27T06:38:55.382Z,17.90
2023-01-27T06:41:25.700Z,17.90
2023-01-27T06:43:54.631Z,17.90
2023-01-27T06:46:23.226Z,17.90
2023-01-27T06:48:52.120Z,17.90
2023-01-27T06:51:20.663Z,17.90
2023-01-27T06:53:49.544Z,17.80
2023-01-27T06:56:18.025Z,17.80
2023-01-27T06:58:46.882Z,17.70
2023-01-27T07:01:15.541Z,17.70
2023-01-27T07:03:45.066Z,17.70
2023-01-27T07:06:15.276Z,17.60
2023-01-27T07:08:47.306Z,17.60
2023-01-27T07:11:15.899Z,17.60
2023-01-27T07:13:44.857Z,17.60
2023-01-27T07:16:13.468Z,17.50
2023-01-27T07:18:42.457Z,17.50
2023-01-27T07:21:11.235Z,17.50
2023-01-27T07:23:40.155Z,17.40
2023-01-27T07:26:23.297Z,17.40
2023-01-27T07:28:53.795Z,17.30
2023-01-27T07:31:23.878Z,17.30
2023-01-27T07:33:54.006Z,17.30
2023-01-27T07:38:51.881Z,17.20
2023-01-27T07:41:20.405Z,17.20
2023-01-27T07:43:52.399Z,17.20
2023-01-27T07:46:21.396Z,17.20
2023-01-27T07:48:50.219Z,17.20
2023-01-27T07:56:17.646Z,17.10
2023-01-27T07:58:46.556Z,17.10
2023-01-27T08:01:15.363Z,17.10
2023-01-27T08:03:44.254Z,17.00
2023-01-27T08:06:13.219Z,17.10
2023-01-27T08:08:42.205Z,17.00
2023-01-27T08:11:14.277Z,17.00
2023-01-27T08:13:43.334Z,17.00
2023-01-27T08:16:14.013Z,17.00
2023-01-27T08:18:42.985Z,16.90
2023-01-27T08:21:12.420Z,16.90
2023-01-27T08:23:41.323Z,16.90
2023-01-27T08:53:38.616Z,16.90
2023-01-27T08:56:11.992Z,16.70
2023-01-27T08:58:40.931Z,16.70
2023-01-27T09:01:09.570Z,16.60
2023-01-27T09:03:38.477Z,16.60
2023-01-27T09:06:09.433Z,16.60
2023-01-27T09:08:38.487Z,16.60
2023-01-27T09:11:15.590Z,16.60
2023-01-27T09:13:44.600Z,16.60
2023-01-27T09:16:13.032Z,16.60
2023-01-27T09:18:42.817Z,16.50
2023-01-27T09:21:12.054Z,16.50
2023-01-27T09:23:40.849Z,16.50
2023-01-27T09:26:09.272Z,16.50
2023-01-27T09:28:38.107Z,16.50
2023-01-27T09:31:09.048Z,16.50
2023-01-27T09:33:39.270Z,16.50
2023-01-27T09:36:17.099Z,16.50
2023-01-27T09:38:54.227Z,16.50
2023-01-27T09:42:07.432Z,16.40
2023-01-27T09:44:37.255Z,16.40
2023-01-27T09:47:31.475Z,16.40
2023-01-27T09:50:31.687Z,16.40
2023-01-27T09:53:00.206Z,16.40
2023-01-27T09:56:20.621Z,16.40
2023-01-27T09:58:54.745Z,16.40
2023-01-27T10:01:41.418Z,16.40
2023-01-27T10:04:50.501Z,16.40
2023-01-27T10:07:49.866Z,16.40
2023-01-27T10:10:36.244Z,16.30
2023-01-27T10:13:26.046Z,16.30
2023-01-27T10:16:16.227Z,16.30
2023-01-27T10:18:58.037Z,16.30
2023-01-27T10:21:55.124Z,16.30
2023-01-27T10:24:42.712Z,16.30
2023-01-27T10:27:22.395Z,16.30
2023-01-27T10:30:10.103Z,16.30
2023-01-27T10:32:53.624Z,16.30
2023-01-27T10:35:44.733Z,16.30
2023-01-27T10:38:36.340Z,16.30
2023-01-27T17:39:56.260Z,19.00
2023-01-27T17:58:05.907Z,19.50
